Time;durP1;ratioP1;P1;durP2;ratioP2;P2;SDS_P1;SDS_P2;PMS_P1;PMS_P2;Temp;Humidity;BMP_temperature;BMP_pressure;BME280_temperature;BME280_humidity;BME280_pressure;Samples;Min_cycle;Max_cycle;Signal;HPM_P1;HPM_P2
2021/07/08 00:01:34;;;;;;;8.40;4.70;;;16.70;99.90;;;;;;4975932;28;20426;-77
2021/07/08 00:04:01;;;;;;;8.43;4.53;;;16.70;99.90;;;;;;4976654;28;20473;-76
2021/07/08 00:06:28;;;;;;;7.57;4.83;;;16.60;99.90;;;;;;4975581;28;20423;-77
2021/07/08 00:08:55;;;;;;;7.63;4.80;;;16.60;99.90;;;;;;4975371;28;20449;-78
2021/07/08 00:11:22;;;;;;;8.50;4.80;;;16.50;99.90;;;;;;4975641;28;20419;-75
2021/07/08 00:13:49;;;;;;;9.70;4.50;;;16.50;99.90;;;;;;5003871;28;20451;-78
2021/07/08 00:16:16;;;;;;;8.23;4.93;;;16.50;99.90;;;;;;5013643;28;20943;-77
2021/07/08 00:18:43;;;;;;;8.30;4.93;;;16.50;99.90;;;;;;4995011;28;20473;-75
2021/07/08 00:21:10;;;;;;;7.07;4.07;;;16.50;99.90;;;;;;4995010;28;20426;-76
2021/07/08 00:23:37;;;;;;;5.63;4.20;;;16.40;99.90;;;;;;4987473;28;20478;-78
2021/07/08 00:26:04;;;;;;;8.20;4.83;;;16.50;99.90;;;;;;4974312;28;20515;-75
2021/07/08 00:28:30;;;;;;;7.50;4.20;;;16.50;99.90;;;;;;4975225;28;20822;-75
2021/07/08 00:30:57;;;;;;;5.23;4.10;;;16.60;99.90;;;;;;4975758;28;20427;-78
2021/07/08 00:33:24;;;;;;;6.13;4.30;;;16.60;99.90;;;;;;4983743;28;20840;-76
2021/07/08 00:35:51;;;;;;;4.40;3.80;;;16.60;99.90;;;;;;5009867;28;20469;-77
2021/07/08 00:38:18;;;;;;;6.13;3.60;;;16.70;99.90;;;;;;4996563;28;20831;-76
2021/07/08 00:40:45;;;;;;;10.27;3.70;;;16.80;99.90;;;;;;5014630;28;20435;-76
2021/07/08 00:43:12;;;;;;;5.20;3.87;;;16.70;99.90;;;;;;5012632;28;20556;-76
2021/07/08 00:45:40;;;;;;;4.80;3.87;;;16.80;99.90;;;;;;5009308;28;20465;-78
2021/07/08 00:48:07;;;;;;;7.97;4.17;;;16.70;99.90;;;;;;4974714;28;20470;-78
2021/07/08 00:50:42;;;;;;;5.50;3.53;;;16.70;99.90;;;;;;4974049;28;20428;-77
2021/07/08 00:53:10;;;;;;;5.93;2.93;;;16.70;99.90;;;;;;4977961;28;20472;-78
2021/07/08 00:55:37;;;;;;;8.40;3.80;;;16.90;99.90;;;;;;4994911;28;21100;-77
2021/07/08 00:58:05;;;;;;;5.00;3.57;;;16.90;99.90;;;;;;4994300;28;20553;-75
2021/07/08 01:00:37;;;;;;;9.40;4.53;;;16.90;99.90;;;;;;4994813;28;20426;-76
2021/07/08 01:03:08;;;;;;;7.20;3.87;;;16.90;99.90;;;;;;4993887;28;20847;-77
2021/07/08 01:05:37;;;;;;;8.33;3.70;;;16.90;99.90;;;;;;5009614;28;20832;-77
2021/07/08 01:08:05;;;;;;;6.33;3.40;;;16.80;99.90;;;;;;4993733;28;20458;-76
2021/07/08 01:10:32;;;;;;;7.80;3.73;;;16.90;99.90;;;;;;4994883;28;20518;-76
2021/07/08 01:13:00;;;;;;;4.37;3.40;;;16.80;99.90;;;;;;5001053;28;20457;-76
2021/07/08 01:15:28;;;;;;;7.10;3.40;;;16.90;99.90;;;;;;5013931;28;20425;-78
2021/07/08 01:17:55;;;;;;;4.67;3.60;;;16.90;99.90;;;;;;4994556;28;20466;-75
2021/07/08 01:20:25;;;;;;;6.30;4.77;;;16.90;99.90;;;;;;4974968;28;20431;-77
2021/07/08 01:22:57;;;;;;;5.57;3.33;;;16.90;99.90;;;;;;4975025;28;20463;-76
2021/07/08 01:25:30;;;;;;;5.43;3.83;;;17.00;99.90;;;;;;4974547;28;20473;-77
2021/07/08 01:27:59;;;;;;;5.27;4.00;;;16.90;99.90;;;;;;4989081;28;20463;-77
2021/07/08 01:30:27;;;;;;;6.03;3.93;;;16.90;99.90;;;;;;4974747;28;20422;-77
2021/07/08 01:32:55;;;;;;;8.70;4.70;;;16.90;99.90;;;;;;4973174;28;20522;-76
2021/07/08 01:35:23;;;;;;;5.23;3.77;;;16.70;99.90;;;;;;4974961;28;20419;-78
2021/07/08 01:37:50;;;;;;;5.33;3.70;;;16.50;99.90;;;;;;4974212;28;20462;-78
2021/07/08 01:40:18;;;;;;;5.27;3.57;;;16.40;99.90;;;;;;4993740;28;20426;-77
2021/07/08 01:42:46;;;;;;;5.90;3.27;;;16.40;99.90;;;;;;4993315;28;20485;-79
2021/07/08 01:45:15;;;;;;;7.30;3.57;;;16.40;99.90;;;;;;4992495;28;20469;-78
2021/07/08 01:47:44;;;;;;;6.03;4.80;;;16.40;99.90;;;;;;4993248;28;20557;-79
2021/07/08 01:50:14;;;;;;;7.40;3.97;;;16.40;99.90;;;;;;4993669;28;20434;-76
2021/07/08 01:52:42;;;;;;;5.30;3.77;;;16.30;99.90;;;;;;4993055;28;21003;-75
2021/07/08 01:55:09;;;;;;;5.53;3.93;;;16.40;99.90;;;;;;4975002;28;20443;-74
2021/07/08 01:57:42;;;;;;;7.07;4.00;;;16.40;99.90;;;;;;4973779;28;20466;-75
2021/07/08 02:00:13;;;;;;;6.07;4.53;;;16.30;99.90;;;;;;4974381;28;20454;-77
2021/07/08 02:02:42;;;;;;;5.67;3.60;;;16.30;99.90;;;;;;4974226;28;20471;-77
2021/07/08 02:05:10;;;;;;;6.80;3.87;;;16.20;99.90;;;;;;4973699;28;20968;-75
2021/07/08 02:07:38;;;;;;;5.83;3.70;;;16.10;99.90;;;;;;4973676;28;20470;-76
2021/07/08 02:10:09;;;;;;;6.63;3.50;;;16.20;99.90;;;;;;4974530;28;20443;-76
2021/07/08 02:12:38;;;;;;;4.47;3.20;;;16.10;99.90;;;;;;4981598;28;20457;-77
2021/07/08 02:15:06;;;;;;;5.07;3.77;;;16.10;99.90;;;;;;5013391;28;20447;-76
2021/07/08 02:17:34;;;;;;;3.83;2.67;;;16.00;99.90;;;;;;5009254;28;20450;-77
2021/07/08 02:20:01;;;;;;;8.00;3.37;;;16.10;99.90;;;;;;4993360;28;20422;-77
2021/07/08 02:22:28;;;;;;;4.63;2.83;;;16.10;99.90;;;;;;4992705;28;20559;-77
2021/07/08 02:24:55;;;;;;;10.30;3.40;;;16.00;99.90;;;;;;4993111;28;20983;-75
2021/07/08 02:27:22;;;;;;;4.93;2.97;;;15.90;99.90;;;;;;4992236;28;20476;-76
2021/07/08 02:29:49;;;;;;;5.90;3.60;;;15.80;99.90;;;;;;4993074;28;20525;-74
2021/07/08 02:32:16;;;;;;;7.00;3.23;;;15.80;99.90;;;;;;4992363;28;20477;-75
2021/07/08 02:34:43;;;;;;;5.57;2.70;;;15.80;99.90;;;;;;4993086;28;20804;-76
2021/07/08 02:37:10;;;;;;;6.10;3.87;;;15.80;99.90;;;;;;4992206;28;20458;-76
2021/07/08 02:39:37;;;;;;;8.70;3.90;;;15.70;99.90;;;;;;4978102;28;20439;-76
2021/07/08 02:42:04;;;;;;;6.70;3.57;;;15.70;99.90;;;;;;4972752;28;20455;-75
2021/07/08 02:44:32;;;;;;;7.70;3.30;;;15.60;99.90;;;;;;4973450;28;20889;-77
2021/07/08 02:47:01;;;;;;;5.43;3.03;;;15.60;99.90;;;;;;4972064;28;20466;-77
2021/07/08 02:49:28;;;;;;;5.20;3.50;;;15.60;99.90;;;;;;4972396;28;20419;-76
2021/07/08 02:51:55;;;;;;;4.70;2.43;;;15.60;99.90;;;;;;4972794;28;20455;-76
2021/07/08 02:54:21;;;;;;;7.87;3.80;;;15.50;99.90;;;;;;4988182;28;20976;-74
2021/07/08 02:56:48;;;;;;;6.20;3.33;;;15.60;99.90;;;;;;4972621;28;20525;-75
2021/07/08 02:59:15;;;;;;;5.03;3.00;;;15.60;99.90;;;;;;4972110;28;20430;-75
2021/07/08 03:01:42;;;;;;;8.70;4.00;;;15.50;99.90;;;;;;4989334;28;20538;-75
2021/07/08 03:04:08;;;;;;;3.73;3.43;;;15.50;99.90;;;;;;4986489;28;20454;-76
2021/07/08 03:06:35;;;;;;;6.33;3.77;;;15.50;99.90;;;;;;4974750;28;20476;-77
2021/07/08 03:09:03;;;;;;;9.60;4.20;;;15.50;99.90;;;;;;4982890;28;20458;-75
2021/07/08 03:11:33;;;;;;;6.20;4.03;;;15.60;99.90;;;;;;4972495;28;20836;-75
2021/07/08 03:14:00;;;;;;;6.60;3.30;;;15.70;99.90;;;;;;5002824;28;20455;-75
2021/07/08 03:16:27;;;;;;;5.00;3.00;;;15.70;99.90;;;;;;5011588;28;20855;-76
2021/07/08 03:18:54;;;;;;;9.43;3.37;;;15.60;99.90;;;;;;4982993;28;20825;-77
2021/07/08 03:21:21;;;;;;;5.13;3.60;;;15.60;99.90;;;;;;4969397;28;20964;-76
2021/07/08 03:23:48;;;;;;;5.83;2.70;;;15.50;99.90;;;;;;4991882;28;20469;-76
2021/07/08 03:26:15;;;;;;;7.33;3.40;;;15.60;99.90;;;;;;4992315;28;20864;-75
2021/07/08 03:28:42;;;;;;;4.07;3.17;;;15.60;99.90;;;;;;5006919;28;21013;-76
2021/07/08 03:31:09;;;;;;;4.90;4.20;;;15.50;99.90;;;;;;4992374;28;20431;-76
2021/07/08 03:33:35;;;;;;;4.47;3.33;;;15.50;99.90;;;;;;4991931;28;20989;-75
2021/07/08 03:36:03;;;;;;;9.43;3.50;;;15.50;99.90;;;;;;4992464;28;20920;-75
2021/07/08 03:38:30;;;;;;;7.03;3.40;;;15.50;99.90;;;;;;5001174;28;20482;-75
2021/07/08 03:40:59;;;;;;;6.10;3.30;;;15.40;99.90;;;;;;4973022;28;20430;-75
2021/07/08 03:43:26;;;;;;;6.83;3.40;;;15.40;99.90;;;;;;4988633;28;20478;-77
2021/07/08 03:45:53;;;;;;;6.47;3.47;;;15.40;99.90;;;;;;4974016;28;20469;-76
2021/07/08 03:48:22;;;;;;;6.07;3.40;;;15.50;99.90;;;;;;4988966;28;20482;-75
2021/07/08 03:50:48;;;;;;;10.23;3.00;;;15.40;99.90;;;;;;4971869;28;20431;-76
2021/07/08 03:53:15;;;;;;;5.37;3.03;;;15.40;99.90;;;;;;4976337;28;20507;-75
2021/07/08 03:55:42;;;;;;;5.93;3.80;;;15.40;99.90;;;;;;4993752;28;20445;-75
2021/07/08 03:58:11;;;;;;;14.13;4.30;;;15.40;99.90;;;;;;4995422;28;20458;-74
2021/07/08 04:00:41;;;;;;;7.70;3.30;;;15.50;99.90;;;;;;4995750;28;20436;-75
2021/07/08 04:03:14;;;;;;;6.73;3.50;;;15.60;99.90;;;;;;4986474;28;20474;-74
2021/07/08 04:05:42;;;;;;;6.03;3.10;;;15.70;99.90;;;;;;4991218;28;20462;-75
2021/07/08 04:08:10;;;;;;;4.77;3.07;;;15.70;99.90;;;;;;4976448;28;20479;-75
2021/07/08 04:10:38;;;;;;;7.47;3.13;;;15.70;99.90;;;;;;4975053;28;20952;-75
2021/07/08 04:13:07;;;;;;;3.90;3.03;;;15.70;99.90;;;;;;4990278;28;20491;-76
2021/07/08 04:15:34;;;;;;;8.20;3.80;;;15.70;99.90;;;;;;5028605;28;20923;-77
2021/07/08 04:18:02;;;;;;;10.77;3.60;;;15.70;99.90;;;;;;4994766;28;20500;-75
2021/07/08 04:20:30;;;;;;;5.10;3.30;;;15.80;99.90;;;;;;4994281;28;20804;-76
2021/07/08 04:22:57;;;;;;;5.93;3.57;;;15.80;99.90;;;;;;4993561;28;20458;-77
2021/07/08 04:25:27;;;;;;;7.90;3.13;;;15.80;99.90;;;;;;4990385;28;20468;-73
2021/07/08 04:27:54;;;;;;;5.43;3.23;;;15.90;99.90;;;;;;4975116;28;20551;-74
2021/07/08 04:30:23;;;;;;;5.17;3.57;;;15.90;99.90;;;;;;4975740;28;20426;-75
2021/07/08 04:32:51;;;;;;;9.40;2.90;;;15.90;99.90;;;;;;4979562;28;20525;-75
2021/07/08 04:35:21;;;;;;;6.30;3.33;;;16.00;99.90;;;;;;4995253;28;20422;-76
2021/07/08 04:37:48;;;;;;;4.77;3.70;;;16.00;99.90;;;;;;4992947;28;21043;-75
2021/07/08 04:40:18;;;;;;;4.90;3.77;;;16.00;99.90;;;;;;4993921;28;20437;-75
2021/07/08 04:42:46;;;;;;;5.57;3.90;;;16.10;99.90;;;;;;5009528;28;20532;-77
2021/07/08 04:45:14;;;;;;;5.07;3.50;;;16.00;99.90;;;;;;4994954;28;20419;-75
2021/07/08 04:47:43;;;;;;;5.93;3.73;;;16.00;99.90;;;;;;4981258;28;20996;-75
2021/07/08 04:50:20;;;;;;;10.83;3.90;;;16.00;99.90;;;;;;4975558;28;20427;-75
2021/07/08 04:52:48;;;;;;;4.40;3.17;;;16.00;99.90;;;;;;4989723;28;20981;-77
2021/07/08 04:55:17;;;;;;;5.63;3.17;;;16.00;99.90;;;;;;5010201;28;20534;-76
2021/07/08 04:57:45;;;;;;;6.20;3.70;;;16.10;99.90;;;;;;4993820;28;20458;-77
2021/07/08 05:00:15;;;;;;;6.27;3.70;;;16.10;99.90;;;;;;4994805;28;20500;-75
2021/07/08 05:02:42;;;;;;;5.27;3.50;;;16.10;99.90;;;;;;5009014;28;20468;-75
2021/07/08 05:05:11;;;;;;;6.87;4.10;;;16.30;99.90;;;;;;5014209;28;20417;-76
2021/07/08 05:07:38;;;;;;;8.50;4.83;;;16.30;99.90;;;;;;5012135;28;20477;-76
2021/07/08 05:10:11;;;;;;;6.20;4.40;;;16.40;99.90;;;;;;4977667;28;20454;-76
2021/07/08 05:12:38;;;;;;;7.10;4.63;;;16.40;99.90;;;;;;4983024;28;20831;-75
2021/07/08 05:15:06;;;;;;;7.97;3.90;;;16.40;99.90;;;;;;5014036;28;20417;-78
2021/07/08 05:17:34;;;;;;;7.00;3.67;;;16.50;99.90;;;;;;5007379;28;20537;-77
2021/07/08 05:20:02;;;;;;;4.77;3.60;;;16.60;99.90;;;;;;4994558;28;20526;-76
2021/07/08 05:22:36;;;;;;;6.57;4.50;;;16.70;99.90;;;;;;4977658;28;20467;-77
2021/07/08 05:25:05;;;;;;;9.13;3.80;;;16.70;99.90;;;;;;4974482;28;20546;-79
2021/07/08 05:27:32;;;;;;;6.67;4.43;;;16.70;99.90;;;;;;4974119;28;20475;-75
2021/07/08 05:29:59;;;;;;;7.70;5.10;;;16.70;99.90;;;;;;4976086;28;20473;-79
2021/07/08 05:32:27;;;;;;;6.47;4.30;;;16.80;99.90;;;;;;4974250;28;20466;-77
2021/07/08 05:34:54;;;;;;;6.80;3.70;;;16.80;99.90;;;;;;4973807;28;20840;-77
2021/07/08 05:37:21;;;;;;;7.83;4.00;;;16.90;99.90;;;;;;4973909;28;20553;-79
2021/07/08 05:39:48;;;;;;;7.50;4.20;;;16.90;99.90;;;;;;4989860;28;20446;-75
2021/07/08 05:42:15;;;;;;;6.00;3.80;;;17.00;99.90;;;;;;4993259;28;20462;-77
2021/07/08 05:44:41;;;;;;;6.70;3.70;;;17.10;99.90;;;;;;4992559;28;20434;-77
2021/07/08 05:47:08;;;;;;;7.20;4.53;;;17.20;99.90;;;;;;4991962;28;21042;-78
2021/07/08 05:49:55;;;;;;;6.50;4.03;;;17.20;99.90;;;;;;4993864;28;20453;-77
2021/07/08 05:52:22;;;;;;;4.90;4.17;;;17.20;99.90;;;;;;4993254;28;20473;-75
2021/07/08 05:54:49;;;;;;;6.00;4.53;;;17.10;99.90;;;;;;4982103;28;20490;-78
2021/07/08 05:57:16;;;;;;;6.27;4.00;;;17.20;99.90;;;;;;4973469;28;20462;-77
2021/07/08 05:59:42;;;;;;;8.60;6.33;;;17.30;99.90;;;;;;4974138;28;20809;-77
2021/07/08 06:02:09;;;;;;;11.03;6.20;;;17.30;99.90;;;;;;4979122;28;20485;-76
2021/07/08 06:04:36;;;;;;;8.43;5.23;;;17.40;99.90;;;;;;4993490;28;20430;-75
2021/07/08 06:07:03;;;;;;;7.67;4.70;;;17.40;99.90;;;;;;4992860;28;20454;-74
2021/07/08 06:09:30;;;;;;;7.87;5.30;;;17.50;99.90;;;;;;5005861;28;20449;-74
2021/07/08 06:11:58;;;;;;;6.90;4.40;;;17.60;99.90;;;;;;5004583;28;20458;-75
2021/07/08 06:14:25;;;;;;;8.83;4.70;;;17.70;99.90;;;;;;5011938;28;20835;-74
2021/07/08 06:16:52;;;;;;;9.40;5.13;;;17.80;99.90;;;;;;5003329;28;20462;-74
2021/07/08 06:19:22;;;;;;;10.00;5.37;;;17.90;99.90;;;;;;4988008;28;20443;-74
2021/07/08 06:21:49;;;;;;;10.37;4.97;;;18.00;99.90;;;;;;4973062;28;20993;-76
2021/07/08 06:24:17;;;;;;;9.17;4.70;;;18.10;99.90;;;;;;4981064;28;20957;-74
2021/07/08 06:26:44;;;;;;;5.13;3.37;;;18.40;99.90;;;;;;4972881;28;20519;-74
2021/07/08 06:29:14;;;;;;;5.97;4.30;;;18.50;99.90;;;;;;4978564;28;20770;-74
2021/07/08 06:31:41;;;;;;;18.67;13.00;;;18.50;99.90;;;;;;4981730;28;20506;-74
2021/07/08 06:34:09;;;;;;;10.10;7.87;;;18.60;99.90;;;;;;4991722;28;20504;-75
2021/07/08 06:36:40;;;;;;;5.70;4.50;;;18.80;99.90;;;;;;4995229;28;20430;-75
2021/07/08 06:39:07;;;;;;;7.50;5.20;;;18.90;99.90;;;;;;4992842;28;20437;-74
2021/07/08 06:41:36;;;;;;;6.10;5.33;;;19.10;99.90;;;;;;5007435;28;20422;-75
2021/07/08 06:44:03;;;;;;;8.50;4.80;;;19.20;99.90;;;;;;4992878;28;20456;-75
2021/07/08 06:46:31;;;;;;;9.33;4.60;;;19.30;99.90;;;;;;5007998;28;20473;-76
2021/07/08 06:49:02;;;;;;;5.67;3.70;;;19.40;99.90;;;;;;4972014;28;20449;-74
2021/07/08 06:51:29;;;;;;;3.33;2.60;;;19.60;99.90;;;;;;4972801;28;20428;-76
2021/07/08 06:53:56;;;;;;;4.90;3.20;;;19.60;99.90;;;;;;4981438;28;20471;-76
2021/07/08 06:56:24;;;;;;;4.07;3.40;;;19.50;99.90;;;;;;4992632;28;20491;-74
2021/07/08 06:58:51;;;;;;;5.07;3.00;;;19.50;99.90;;;;;;4990988;28;20987;-75
2021/07/08 07:01:18;;;;;;;3.43;2.83;;;19.50;99.90;;;;;;4999635;28;20697;-76
2021/07/08 07:03:45;;;;;;;3.43;2.80;;;19.50;99.90;;;;;;4972764;28;20558;-74
2021/07/08 07:06:12;;;;;;;5.50;2.93;;;19.60;99.90;;;;;;4971895;28;21038;-75
2021/07/08 07:08:41;;;;;;;4.43;3.20;;;19.70;99.90;;;;;;4972089;28;20481;-76
2021/07/08 07:11:09;;;;;;;3.60;3.10;;;19.70;99.90;;;;;;4973234;28;20957;-75
2021/07/08 07:13:37;;;;;;;5.03;2.53;;;19.60;99.90;;;;;;4971464;28;20467;-75
2021/07/08 07:16:04;;;;;;;5.07;3.30;;;19.60;99.90;;;;;;4988045;28;20444;-74
2021/07/08 07:18:34;;;;;;;6.50;3.20;;;19.70;99.90;;;;;;4990799;28;20462;-74
2021/07/08 07:21:04;;;;;;;4.87;3.13;;;19.80;99.90;;;;;;5007336;28;20418;-75
2021/07/08 07:23:34;;;;;;;4.50;3.10;;;19.80;99.90;;;;;;4989054;28;20474;-76
2021/07/08 07:26:01;;;;;;;6.10;3.63;;;19.80;99.90;;;;;;4992480;28;20800;-74
2021/07/08 07:28:28;;;;;;;3.37;2.83;;;19.80;99.90;;;;;;4980913;28;20471;-74
2021/07/08 07:30:54;;;;;;;6.30;2.90;;;19.90;99.90;;;;;;4976685;28;20431;-75
2021/07/08 07:33:21;;;;;;;3.50;3.20;;;19.90;99.90;;;;;;4986345;28;20480;-75
2021/07/08 07:35:48;;;;;;;4.13;3.00;;;19.90;99.90;;;;;;4996124;28;20436;-76
2021/07/08 07:38:17;;;;;;;6.10;4.00;;;19.90;99.90;;;;;;4995431;28;20487;-77
2021/07/08 07:40:44;;;;;;;5.57;3.43;;;19.90;99.90;;;;;;5002982;28;20431;-75
2021/07/08 07:43:13;;;;;;;4.57;4.13;;;19.90;99.90;;;;;;4992098;28;20497;-74
2021/07/08 07:45:41;;;;;;;7.10;6.40;;;20.00;99.90;;;;;;4975364;28;20514;-76
2021/07/08 07:48:11;;;;;;;6.33;4.77;;;20.00;99.90;;;;;;4986434;28;20485;-75
2021/07/08 07:50:38;;;;;;;7.00;4.10;;;20.00;99.90;;;;;;4975779;28;20418;-75
2021/07/08 07:53:05;;;;;;;5.50;4.03;;;20.10;99.90;;;;;;4982287;28;20497;-75
2021/07/08 07:55:33;;;;;;;6.90;4.60;;;20.20;99.90;;;;;;4986674;28;20433;-75
2021/07/08 07:58:01;;;;;;;5.80;4.47;;;20.20;99.90;;;;;;4974625;28;20469;-76
2021/07/08 08:00:29;;;;;;;4.30;3.47;;;20.10;99.90;;;;;;4999975;28;20453;-74
2021/07/08 08:02:57;;;;;;;7.07;5.10;;;20.20;99.90;;;;;;4992822;28;20471;-74
2021/07/08 08:10:46;;;;;;;6.07;3.40;;;20.30;99.90;;;;;;4976463;28;20434;-78
2021/07/08 08:13:14;;;;;;;6.80;4.90;;;20.30;99.90;;;;;;4975794;28;20481;-75
2021/07/08 08:15:41;;;;;;;7.33;4.80;;;20.30;99.90;;;;;;4981639;28;20485;-78
2021/07/08 08:18:08;;;;;;;7.87;5.80;;;20.30;99.90;;;;;;4983970;28;20471;-75
2021/07/08 08:20:36;;;;;;;7.47;5.00;;;20.30;99.90;;;;;;4990696;28;20480;-74
2021/07/08 08:23:03;;;;;;;8.00;5.00;;;20.30;99.90;;;;;;4977359;28;20482;-73
2021/07/08 08:25:30;;;;;;;8.17;4.67;;;20.30;99.90;;;;;;4975663;28;20913;-74
2021/07/08 08:27:59;;;;;;;6.10;3.93;;;20.30;99.90;;;;;;4982986;28;20477;-74
2021/07/08 08:30:26;;;;;;;15.57;5.47;;;20.40;99.90;;;;;;5010173;28;20433;-74
2021/07/08 08:32:53;;;;;;;8.90;3.63;;;20.30;99.90;;;;;;5002743;28;20486;-74
2021/07/08 08:35:21;;;;;;;5.03;3.90;;;20.30;99.90;;;;;;4977952;28;20613;-73
2021/07/08 08:37:49;;;;;;;6.37;4.17;;;20.30;99.90;;;;;;4974819;28;20989;-74
2021/07/08 08:40:16;;;;;;;5.37;4.47;;;20.40;99.90;;;;;;4986242;28;20434;-73
2021/07/08 08:42:43;;;;;;;5.53;4.10;;;20.40;99.90;;;;;;5009187;28;20466;-74
2021/07/08 08:45:17;;;;;;;4.27;3.60;;;20.40;99.90;;;;;;4994870;28;20434;-74
2021/07/08 08:47:52;;;;;;;5.83;3.77;;;20.30;99.90;;;;;;4992806;28;21015;-73
2021/07/08 08:50:19;;;;;;;7.77;4.00;;;20.40;99.90;;;;;;4994987;28;20422;-74
2021/07/08 08:52:50;;;;;;;6.17;4.33;;;20.40;99.90;;;;;;4994088;28;20489;-73
2021/07/08 08:55:18;;;;;;;11.37;4.40;;;20.40;99.90;;;;;;4975266;28;20438;-73
2021/07/08 08:57:48;;;;;;;7.00;5.50;;;20.40;99.40;;;;;;4987105;28;20470;-74
2021/07/08 09:00:23;;;;;;;9.23;5.00;;;20.40;99.90;;;;;;4995083;28;20982;-72
2021/07/08 09:03:06;;;;;;;7.20;4.73;;;20.60;99.90;;;;;;4987789;28;20497;-74
2021/07/08 09:05:36;;;;;;;5.30;3.90;;;20.60;99.90;;;;;;4993434;28;20530;-73
2021/07/08 09:08:19;;;;;;;4.07;3.67;;;20.70;99.90;;;;;;4993573;28;20480;-73
2021/07/08 09:11:01;;;;;;;3.80;3.30;;;20.80;99.90;;;;;;5004470;28;20936;-73
2021/07/08 09:13:44;;;;;;;4.23;3.37;;;20.90;99.90;;;;;;4989968;28;20483;-73
2021/07/08 09:16:13;;;;;;;4.00;3.57;;;21.20;98.10;;;;;;4973780;28;20913;-73
2021/07/08 09:18:41;;;;;;;4.87;3.63;;;21.40;95.50;;;;;;4974766;28;20984;-73
2021/07/08 09:21:15;;;;;;;5.57;3.57;;;21.50;95.80;;;;;;4990775;28;20435;-73
2021/07/08 09:24:01;;;;;;;6.90;3.50;;;21.60;94.70;;;;;;4974656;28;20549;-73
2021/07/08 09:26:27;;;;;;;4.00;3.70;;;21.70;93.20;;;;;;4984881;28;20800;-73
2021/07/08 09:29:32;;;;;;;4.23;2.63;;;21.80;92.90;;;;;;4988925;28;20459;-75
2021/07/08 09:32:16;;;;;;;5.87;3.30;;;21.90;93.70;;;;;;4966711;28;20543;-73
2021/07/08 09:34:46;;;;;;;5.03;4.17;;;22.10;91.10;;;;;;4985562;28;20458;-74
2021/07/08 09:37:19;;;;;;;9.23;5.37;;;22.20;90.50;;;;;;4972859;28;20549;-73
2021/07/08 09:39:47;;;;;;;6.47;4.40;;;22.10;90.70;;;;;;4976404;28;20541;-75
2021/07/08 09:42:18;;;;;;;5.00;3.97;;;22.10;90.70;;;;;;5008300;28;20489;-73
2021/07/08 09:44:49;;;;;;;4.90;4.40;;;22.00;91.20;;;;;;5007043;28;20463;-75
2021/07/08 09:47:21;;;;;;;6.37;3.20;;;21.90;93.10;;;;;;4974442;28;20477;-74
2021/07/08 09:49:48;;;;;;;5.00;3.60;;;21.90;92.80;;;;;;4989560;28;20466;-74
2021/07/08 09:52:16;;;;;;;7.67;3.80;;;22.00;92.80;;;;;;4973503;28;20492;-73
2021/07/08 09:55:31;;;;;;;14.03;4.43;;;22.10;92.40;;;;;;4974245;28;20444;-74
2021/07/08 09:57:45;;;;;;;6.73;3.10;;;22.10;91.90;;;;;;4983988;28;20461;-74
2021/07/08 10:00:19;;;;;;;3.67;3.27;;;22.10;91.20;;;;;;5009372;28;20469;-74
2021/07/08 10:02:47;;;;;;;4.80;3.20;;;22.10;91.40;;;;;;4995445;28;20470;-73
2021/07/08 10:05:15;;;;;;;5.57;3.40;;;22.20;92.00;;;;;;4995749;28;20504;-74
2021/07/08 10:07:43;;;;;;;4.97;3.80;;;22.20;91.50;;;;;;4993987;28;20489;-76
2021/07/08 10:10:11;;;;;;;8.17;5.53;;;22.20;92.70;;;;;;4976733;28;20471;-75
2021/07/08 10:12:38;;;;;;;6.37;4.33;;;22.30;91.40;;;;;;4990377;28;20866;-76
2021/07/08 10:15:09;;;;;;;4.47;3.63;;;22.40;90.80;;;;;;4974813;28;20865;-74
2021/07/08 10:17:37;;;;;;;4.40;3.93;;;22.40;90.60;;;;;;4974333;28;20479;-75
2021/07/08 10:20:07;;;;;;;10.00;4.20;;;22.50;90.50;;;;;;4974723;28;20430;-74
2021/07/08 10:22:34;;;;;;;4.03;3.60;;;22.50;90.20;;;;;;4985505;28;20482;-75
2021/07/08 10:25:02;;;;;;;4.30;3.20;;;22.50;89.90;;;;;;4976799;28;20456;-75
2021/07/08 10:27:30;;;;;;;5.00;3.73;;;22.40;89.80;;;;;;4972104;28;20499;-77
2021/07/08 10:29:59;;;;;;;5.00;3.77;;;22.40;90.00;;;;;;4977644;28;20782;-73
2021/07/08 10:32:27;;;;;;;5.93;4.10;;;22.40;89.40;;;;;;4992242;28;20466;-76
2021/07/08 10:34:57;;;;;;;7.97;4.07;;;22.40;89.70;;;;;;4992692;28;20482;-75
2021/07/08 10:37:27;;;;;;;4.47;3.87;;;22.60;90.10;;;;;;4992542;28;20458;-76
2021/07/08 10:40:26;;;;;;;3.93;3.33;;;22.50;88.40;;;;;;4993618;28;20959;-75
2021/07/08 10:42:54;;;;;;;6.97;3.87;;;22.50;88.70;;;;;;4992730;28;20467;-73
2021/07/08 10:45:36;;;;;;;4.60;3.90;;;22.60;89.50;;;;;;4991931;28;20414;-77
2021/07/08 10:48:19;;;;;;;4.50;3.43;;;22.60;89.40;;;;;;4987096;28;21013;-75
2021/07/08 10:50:47;;;;;;;7.30;5.77;;;22.50;87.70;;;;;;4973724;28;20506;-76
2021/07/08 10:53:33;;;;;;;4.70;4.23;;;22.50;86.60;;;;;;4974925;28;20988;-75
2021/07/08 10:56:07;;;;;;;6.77;3.57;;;22.40;86.80;;;;;;4992091;28;20480;-75
2021/07/08 10:58:39;;;;;;;7.97;4.50;;;22.40;87.00;;;;;;5007184;28;20494;-78
2021/07/08 11:01:29;;;;;;;5.73;3.60;;;22.40;89.00;;;;;;4988190;28;20492;-75
2021/07/08 11:03:58;;;;;;;10.53;4.50;;;22.40;89.80;;;;;;4971877;28;20470;-75
2021/07/08 11:06:29;;;;;;;7.10;4.50;;;22.40;90.60;;;;;;4976612;28;20942;-73
2021/07/08 11:09:09;;;;;;;5.43;4.20;;;22.40;91.00;;;;;;4992219;28;20483;-73
2021/07/08 11:11:45;;;;;;;6.60;4.60;;;22.40;90.80;;;;;;5007299;28;20445;-73
2021/07/08 11:14:21;;;;;;;5.27;4.40;;;22.30;91.10;;;;;;5007595;28;20440;-73
2021/07/08 11:17:11;;;;;;;6.63;4.63;;;22.30;91.10;;;;;;4997304;28;20990;-76
2021/07/08 11:19:40;;;;;;;9.30;4.37;;;22.20;91.70;;;;;;4992471;28;20441;-75
2021/07/08 11:22:12;;;;;;;8.40;4.27;;;22.20;91.60;;;;;;4991856;28;20635;-73
2021/07/08 11:24:47;;;;;;;7.83;4.33;;;22.10;91.30;;;;;;5005703;28;20443;-73
2021/07/08 11:27:17;;;;;;;9.27;4.70;;;22.10;91.10;;;;;;4976890;28;20506;-73
2021/07/08 11:29:53;;;;;;;8.13;6.30;;;22.10;91.20;;;;;;4974675;28;20436;-73
2021/07/08 11:32:58;;;;;;;8.43;5.97;;;22.10;91.90;;;;;;4980785;28;21018;-73
2021/07/08 11:35:36;;;;;;;8.43;5.30;;;22.10;91.50;;;;;;4972796;28;20473;-72
2021/07/08 11:38:05;;;;;;;6.10;4.00;;;22.20;90.90;;;;;;4972929;28;20507;-73
2021/07/08 11:40:47;;;;;;;9.87;4.43;;;22.30;90.70;;;;;;4975030;28;20434;-73
2021/07/08 11:43:22;;;;;;;5.20;4.70;;;22.30;90.30;;;;;;4983820;28;20472;-73
2021/07/08 11:45:52;;;;;;;6.77;3.90;;;22.30;90.60;;;;;;5007373;28;20435;-72
2021/07/08 11:48:27;;;;;;;5.63;4.77;;;22.30;90.20;;;;;;4991481;28;20473;-73
2021/07/08 11:50:55;;;;;;;6.07;4.57;;;22.30;91.00;;;;;;4992117;28;20520;-74
2021/07/08 11:53:22;;;;;;;9.77;5.83;;;22.30;90.80;;;;;;4987817;28;20482;-73
2021/07/08 11:55:55;;;;;;;8.27;5.60;;;22.30;90.60;;;;;;4985425;28;20439;-74
2021/07/08 11:58:28;;;;;;;6.57;4.90;;;22.30;90.90;;;;;;5000861;28;20840;-72
2021/07/08 12:01:07;;;;;;;5.93;4.50;;;22.20;91.00;;;;;;4971303;28;20442;-73
2021/07/08 12:03:47;;;;;;;8.73;4.70;;;22.20;91.10;;;;;;4972875;28;20644;-75
2021/07/08 12:06:20;;;;;;;9.43;4.90;;;22.00;91.60;;;;;;4974751;28;20429;-72
2021/07/08 12:08:51;;;;;;;9.83;5.40;;;22.00;91.40;;;;;;5002781;28;20472;-73
2021/07/08 12:11:25;;;;;;;6.00;4.40;;;21.90;91.80;;;;;;4987451;28;20432;-74
2021/07/08 12:13:58;;;;;;;11.23;4.77;;;21.80;91.80;;;;;;4972571;28;20459;-73
2021/07/08 12:16:30;;;;;;;5.50;4.90;;;21.80;92.00;;;;;;4978615;28;20437;-75
2021/07/08 12:18:58;;;;;;;6.43;5.43;;;21.80;94.40;;;;;;4999101;28;20537;-73
2021/07/08 12:21:37;;;;;;;7.43;4.87;;;21.80;93.20;;;;;;4995589;28;20441;-73
2021/07/08 12:24:24;;;;;;;6.57;4.37;;;21.70;92.90;;;;;;4992062;28;20471;-76
2021/07/08 12:26:59;;;;;;;6.70;4.00;;;21.70;93.50;;;;;;5009582;28;20443;-73
2021/07/08 12:29:30;;;;;;;5.20;4.30;;;21.60;93.90;;;;;;4983545;28;20466;-74
2021/07/08 12:32:15;;;;;;;5.63;4.50;;;21.60;96.70;;;;;;4975109;28;20497;-72
2021/07/08 12:34:50;;;;;;;5.20;4.53;;;21.50;98.00;;;;;;4994123;28;20516;-73
2021/07/08 12:37:21;;;;;;;5.50;4.97;;;21.40;98.60;;;;;;4994116;28;20547;-75
2021/07/08 12:40:04;;;;;;;9.23;4.50;;;21.30;99.80;;;;;;4995231;28;20437;-75
2021/07/08 12:42:33;;;;;;;6.83;4.77;;;21.30;99.90;;;;;;4994492;28;20457;-76
2021/07/08 12:45:10;;;;;;;6.60;4.53;;;21.20;99.90;;;;;;4994980;28;20423;-77
2021/07/08 12:47:40;;;;;;;7.73;4.60;;;21.10;99.90;;;;;;5006040;28;20478;-78
2021/07/08 12:50:11;;;;;;;10.57;5.27;;;21.10;99.90;;;;;;4993799;28;20488;-77
2021/07/08 12:52:42;;;;;;;6.40;4.77;;;21.00;99.90;;;;;;4994528;28;20475;-78
2021/07/08 12:55:42;;;;;;;6.40;5.03;;;21.00;99.90;;;;;;4990301;28;20446;-79
2021/07/08 12:58:20;;;;;;;8.60;5.03;;;21.00;99.90;;;;;;4973631;28;20466;-80
2021/07/08 13:00:54;;;;;;;10.80;5.50;;;21.00;99.90;;;;;;4975661;28;20431;-76
2021/07/08 13:03:26;;;;;;;10.27;5.60;;;20.90;99.90;;;;;;4996699;28;20475;-77
2021/07/08 13:06:05;;;;;;;9.00;5.77;;;20.90;99.90;;;;;;4985996;28;20792;-77